sensor_id;sensor_type;location;lat;lon;timestamp;pressure;altitude;pressure_sealevel;temperature;humidity
43824;BME280;29470;53.550;9.926;2023-06-10T00:01:15;101497.31;;;17.96;77.92
43824;BME280;29470;53.550;9.926;2023-06-10T00:06:20;101499.66;;;17.74;78.78
43824;BME280;29470;53.550;9.926;2023-06-10T00:11:25;101497.97;;;17.41;80.20
43824;BME280;29470;53.550;9.926;2023-06-10T00:16:28;101496.06;;;17.55;79.27
43824;BME280;29470;53.550;9.926;2023-06-10T00:21:34;101501.88;;;17.16;81.49
43824;BME280;29470;53.550;9.926;2023-06-10T00:26:39;101496.81;;;17.19;80.79
43824;BME280;29470;53.550;9.926;2023-06-10T00:31:44;101490.56;;;17.01;81.47
43824;BME280;29470;53.550;9.926;2023-06-10T00:36:48;101491.59;;;17.36;79.31
43824;BME280;29470;53.550;9.926;2023-06-10T00:41:52;101492.94;;;17.13;78.96
43824;BME280;29470;53.550;9.926;2023-06-10T00:46:54;101497.75;;;17.05;77.91
43824;BME280;29470;53.550;9.926;2023-06-10T00:51:59;101498.75;;;16.75;78.74
43824;BME280;29470;53.550;9.926;2023-06-10T00:57:02;101496.69;;;16.55;78.57
43824;BME280;29470;53.550;9.926;2023-06-10T01:02:05;101511.97;;;16.95;77.28
43824;BME280;29470;53.550;9.926;2023-06-10T01:07:17;101506.88;;;16.50;78.44
43824;BME280;29470;53.550;9.926;2023-06-10T01:12:30;101510.59;;;16.85;77.36
43824;BME280;29470;53.550;9.926;2023-06-10T01:17:37;101508.19;;;16.73;77.16
43824;BME280;29470;53.550;9.926;2023-06-10T01:22:55;101506.72;;;16.32;79.06
43824;BME280;29470;53.550;9.926;2023-06-10T01:28:02;101510.53;;;16.69;76.72
43824;BME280;29470;53.550;9.926;2023-06-10T01:33:09;101511.22;;;16.81;75.92
43824;BME280;29470;53.550;9.926;2023-06-10T01:38:15;101514.16;;;16.11;79.26
43824;BME280;29470;53.550;9.926;2023-06-10T01:43:20;101517.06;;;16.30;78.43
43824;BME280;29470;53.550;9.926;2023-06-10T01:48:23;101514.69;;;16.65;76.15
43824;BME280;29470;53.550;9.926;2023-06-10T01:53:27;101505.97;;;16.34;76.50
43824;BME280;29470;53.550;9.926;2023-06-10T01:58:30;101515.94;;;16.72;75.04
43824;BME280;29470;53.550;9.926;2023-06-10T02:03:33;101515.16;;;16.89;73.87
43824;BME280;29470;53.550;9.926;2023-06-10T02:08:38;101500.56;;;16.61;74.51
43824;BME280;29470;53.550;9.926;2023-06-10T02:13:41;101502.63;;;16.52;75.00
43824;BME280;29470;53.550;9.926;2023-06-10T02:18:44;101509.41;;;16.33;76.05
43824;BME280;29470;53.550;9.926;2023-06-10T02:23:49;101504.47;;;16.23;76.49
43824;BME280;29470;53.550;9.926;2023-06-10T02:28:52;101498.63;;;16.12;76.64
43824;BME280;29470;53.550;9.926;2023-06-10T02:33:55;101515.34;;;16.01;77.36
43824;BME280;29470;53.550;9.926;2023-06-10T02:39:00;101510.56;;;16.39;75.27
43824;BME280;29470;53.550;9.926;2023-06-10T02:44:04;101511.34;;;16.68;72.86
43824;BME280;29470;53.550;9.926;2023-06-10T02:49:08;101517.88;;;16.44;74.49
43824;BME280;29470;53.550;9.926;2023-06-10T02:54:12;101523.81;;;16.42;74.69
43824;BME280;29470;53.550;9.926;2023-06-10T02:59:15;101525.25;;;16.37;75.24
43824;BME280;29470;53.550;9.926;2023-06-10T03:04:18;101523.97;;;16.60;73.83
43824;BME280;29470;53.550;9.926;2023-06-10T03:09:31;101521.28;;;16.43;73.92
43824;BME280;29470;53.550;9.926;2023-06-10T03:14:36;101527.59;;;16.47;73.57
43824;BME280;29470;53.550;9.926;2023-06-10T03:19:40;101535.69;;;16.52;73.83
43824;BME280;29470;53.550;9.926;2023-06-10T03:24:45;101526.88;;;16.49;73.86
43824;BME280;29470;53.550;9.926;2023-06-10T03:29:48;101523.19;;;16.16;75.68
43824;BME280;29470;53.550;9.926;2023-06-10T03:34:52;101518.41;;;16.54;73.50
43824;BME280;29470;53.550;9.926;2023-06-10T03:40:02;101525.44;;;16.40;75.04
43824;BME280;29470;53.550;9.926;2023-06-10T03:45:08;101522.91;;;16.26;75.13
43824;BME280;29470;53.550;9.926;2023-06-10T03:50:11;101528.22;;;16.43;74.43
43824;BME280;29470;53.550;9.926;2023-06-10T03:55:19;101532.59;;;16.74;73.21
43824;BME280;29470;53.550;9.926;2023-06-10T04:00:24;101529.66;;;16.38;75.38
43824;BME280;29470;53.550;9.926;2023-06-10T04:05:27;101527.25;;;16.87;73.32
43824;BME280;29470;53.550;9.926;2023-06-10T04:10:33;101528.78;;;16.99;72.18
43824;BME280;29470;53.550;9.926;2023-06-10T04:15:37;101521.63;;;16.64;73.36
43824;BME280;29470;53.550;9.926;2023-06-10T04:20:43;101525.34;;;16.85;72.51
43824;BME280;29470;53.550;9.926;2023-06-10T04:25:49;101521.91;;;16.86;72.97
43824;BME280;29470;53.550;9.926;2023-06-10T04:30:53;101522.25;;;17.07;72.51
43824;BME280;29470;53.550;9.926;2023-06-10T04:35:56;101524.22;;;16.96;72.52
43824;BME280;29470;53.550;9.926;2023-06-10T04:41:04;101512.34;;;17.33;70.76
43824;BME280;29470;53.550;9.926;2023-06-10T04:46:09;101527.75;;;17.28;70.92
43824;BME280;29470;53.550;9.926;2023-06-10T04:51:12;101526.91;;;17.13;71.27
43824;BME280;29470;53.550;9.926;2023-06-10T04:56:17;101521.50;;;17.58;70.46
43824;BME280;29470;53.550;9.926;2023-06-10T05:01:20;101523.94;;;17.55;70.34
43824;BME280;29470;53.550;9.926;2023-06-10T05:06:23;101524.50;;;17.49;70.65
43824;BME280;29470;53.550;9.926;2023-06-10T05:11:27;101523.91;;;17.88;68.89
43824;BME280;29470;53.550;9.926;2023-06-10T05:16:30;101523.66;;;18.16;67.99
43824;BME280;29470;53.550;9.926;2023-06-10T05:21:33;101522.88;;;17.67;70.04
43824;BME280;29470;53.550;9.926;2023-06-10T05:26:37;101517.84;;;17.89;69.93
43824;BME280;29470;53.550;9.926;2023-06-10T05:31:41;101525.09;;;18.46;66.62
43824;BME280;29470;53.550;9.926;2023-06-10T05:36:44;101524.50;;;18.69;66.21
43824;BME280;29470;53.550;9.926;2023-06-10T05:41:48;101523.50;;;18.13;67.81
43824;BME280;29470;53.550;9.926;2023-06-10T05:46:51;101519.97;;;17.96;68.67
43824;BME280;29470;53.550;9.926;2023-06-10T05:51:54;101509.09;;;18.39;66.90
43824;BME280;29470;53.550;9.926;2023-06-10T05:56:59;101509.84;;;18.55;66.63
43824;BME280;29470;53.550;9.926;2023-06-10T06:02:02;101515.28;;;19.14;64.13
43824;BME280;29470;53.550;9.926;2023-06-10T06:07:05;101502.31;;;19.17;63.69
43824;BME280;29470;53.550;9.926;2023-06-10T06:12:09;101508.00;;;20.72;58.45
43824;BME280;29470;53.550;9.926;2023-06-10T06:17:12;101508.66;;;20.87;56.60
43824;BME280;29470;53.550;9.926;2023-06-10T06:22:15;101502.44;;;21.08;56.26
43824;BME280;29470;53.550;9.926;2023-06-10T06:27:23;101496.25;;;21.30;55.68
43824;BME280;29470;53.550;9.926;2023-06-10T06:32:26;101506.03;;;21.10;56.50
43824;BME280;29470;53.550;9.926;2023-06-10T06:37:29;101498.47;;;21.67;54.48
43824;BME280;29470;53.550;9.926;2023-06-10T06:42:48;101502.00;;;22.19;52.42
43824;BME280;29470;53.550;9.926;2023-06-10T06:47:57;101496.38;;;21.82;53.25
43824;BME280;29470;53.550;9.926;2023-06-10T06:53:00;101497.81;;;21.98;53.31
43824;BME280;29470;53.550;9.926;2023-06-10T06:58:05;101494.47;;;22.30;52.14
43824;BME280;29470;53.550;9.926;2023-06-10T07:03:08;101507.06;;;22.13;51.81
43824;BME280;29470;53.550;9.926;2023-06-10T07:08:10;101508.25;;;22.76;51.64
43824;BME280;29470;53.550;9.926;2023-06-10T07:13:15;101507.41;;;24.34;46.95
43824;BME280;29470;53.550;9.926;2023-06-10T07:18:17;101514.06;;;24.92;44.67
43824;BME280;29470;53.550;9.926;2023-06-10T07:23:20;101511.31;;;25.28;44.82
43824;BME280;29470;53.550;9.926;2023-06-10T07:28:25;101515.31;;;26.49;42.16
43824;BME280;29470;53.550;9.926;2023-06-10T07:33:28;101514.88;;;26.80;41.07
43824;BME280;29470;53.550;9.926;2023-06-10T07:38:31;101519.66;;;28.81;37.16
43824;BME280;29470;53.550;9.926;2023-06-10T07:43:35;101510.47;;;32.10;32.03
43824;BME280;29470;53.550;9.926;2023-06-10T07:48:38;101516.50;;;34.88;28.38
43824;BME280;29470;53.550;9.926;2023-06-10T07:53:41;101504.53;;;34.08;29.02
43824;BME280;29470;53.550;9.926;2023-06-10T07:58:45;101494.38;;;35.19;27.78
43824;BME280;29470;53.550;9.926;2023-06-10T08:03:48;101502.75;;;36.88;26.25
43824;BME280;29470;53.550;9.926;2023-06-10T08:08:51;101498.00;;;35.95;26.45
43824;BME280;29470;53.550;9.926;2023-06-10T08:13:56;101497.03;;;34.75;28.05
43824;BME280;29470;53.550;9.926;2023-06-10T08:18:59;101491.69;;;35.60;27.69
43824;BME280;29470;53.550;9.926;2023-06-10T08:24:02;101494.09;;;34.87;27.99
43824;BME280;29470;53.550;9.926;2023-06-10T08:29:06;101497.09;;;33.01;30.66
43824;BME280;29470;53.550;9.926;2023-06-10T08:34:09;101500.41;;;30.94;33.37
43824;BME280;29470;53.550;9.926;2023-06-10T08:39:13;101507.69;;;27.35;38.84
43824;BME280;29470;53.550;9.926;2023-06-10T08:44:26;101494.31;;;26.65;41.32
43824;BME280;29470;53.550;9.926;2023-06-10T08:49:30;101500.09;;;24.22;46.93
43824;BME280;29470;53.550;9.926;2023-06-10T08:54:38;101503.91;;;24.00;46.93
43824;BME280;29470;53.550;9.926;2023-06-10T08:59:44;101492.78;;;24.49;47.62
43824;BME280;29470;53.550;9.926;2023-06-10T09:04:49;101495.69;;;23.89;48.54
43824;BME280;29470;53.550;9.926;2023-06-10T09:09:53;101488.63;;;24.98;46.27
43824;BME280;29470;53.550;9.926;2023-06-10T09:14:58;101491.75;;;24.79;46.56
43824;BME280;29470;53.550;9.926;2023-06-10T09:20:05;101491.69;;;24.77;46.77
43824;BME280;29470;53.550;9.926;2023-06-10T09:25:13;101493.47;;;24.78;46.65
43824;BME280;29470;53.550;9.926;2023-06-10T09:30:28;101478.19;;;25.05;46.59
43824;BME280;29470;53.550;9.926;2023-06-10T09:35:31;101485.75;;;24.88;46.74
43824;BME280;29470;53.550;9.926;2023-06-10T09:40:48;101471.81;;;25.39;45.91
43824;BME280;29470;53.550;9.926;2023-06-10T09:45:55;101474.00;;;25.16;46.59
43824;BME280;29470;53.550;9.926;2023-06-10T09:50:59;101483.00;;;24.83;47.83
43824;BME280;29470;53.550;9.926;2023-06-10T09:56:01;101477.53;;;25.17;46.81
43824;BME280;29470;53.550;9.926;2023-06-10T10:01:06;101482.44;;;25.41;46.34
43824;BME280;29470;53.550;9.926;2023-06-10T10:06:09;101480.13;;;26.07;44.67
43824;BME280;29470;53.550;9.926;2023-06-10T10:11:12;101478.88;;;25.39;46.24
43824;BME280;29470;53.550;9.926;2023-06-10T10:16:20;101483.22;;;26.30;45.16
43824;BME280;29470;53.550;9.926;2023-06-10T10:21:26;101475.81;;;25.62;46.03
43824;BME280;29470;53.550;9.926;2023-06-10T10:26:31;101478.06;;;26.40;45.21
43824;BME280;29470;53.550;9.926;2023-06-10T10:31:37;101485.97;;;25.86;46.16
43824;BME280;29470;53.550;9.926;2023-06-10T10:36:42;101470.13;;;25.89;45.60
43824;BME280;29470;53.550;9.926;2023-06-10T10:41:45;101471.47;;;25.65;45.90
43824;BME280;29470;53.550;9.926;2023-06-10T10:46:50;101470.97;;;25.88;45.76
43824;BME280;29470;53.550;9.926;2023-06-10T10:51:57;101465.94;;;26.60;44.67
43824;BME280;29470;53.550;9.926;2023-06-10T10:57:14;101467.41;;;26.37;44.43
43824;BME280;29470;53.550;9.926;2023-06-10T11:02:32;101466.44;;;26.31;45.12
43824;BME280;29470;53.550;9.926;2023-06-10T11:07:37;101463.72;;;26.87;43.89
43824;BME280;29470;53.550;9.926;2023-06-10T11:12:50;101460.22;;;26.29;45.47
43824;BME280;29470;53.550;9.926;2023-06-10T11:18:12;101462.28;;;26.49;44.77
43824;BME280;29470;53.550;9.926;2023-06-10T11:23:39;101466.91;;;26.66;44.57
43824;BME280;29470;53.550;9.926;2023-06-10T11:29:01;101452.38;;;27.00;44.20
43824;BME280;29470;53.550;9.926;2023-06-10T11:34:06;101466.00;;;26.62;44.14
43824;BME280;29470;53.550;9.926;2023-06-10T11:39:10;101453.38;;;27.09;44.16
43824;BME280;29470;53.550;9.926;2023-06-10T11:44:13;101453.84;;;27.51;43.93
43824;BME280;29470;53.550;9.926;2023-06-10T11:49:22;101449.56;;;27.65;44.06
43824;BME280;29470;53.550;9.926;2023-06-10T11:54:25;101450.03;;;27.27;44.58
43824;BME280;29470;53.550;9.926;2023-06-10T11:59:28;101451.06;;;27.41;45.02
43824;BME280;29470;53.550;9.926;2023-06-10T12:04:33;101442.22;;;27.44;45.16
43824;BME280;29470;53.550;9.926;2023-06-10T12:09:36;101445.25;;;26.96;46.45
43824;BME280;29470;53.550;9.926;2023-06-10T12:14:52;101443.81;;;28.14;44.12
43824;BME280;29470;53.550;9.926;2023-06-10T12:20:02;101446.28;;;27.94;44.20
43824;BME280;29470;53.550;9.926;2023-06-10T12:25:07;101445.31;;;27.83;44.91
43824;BME280;29470;53.550;9.926;2023-06-10T12:30:19;101436.44;;;27.81;45.12
43824;BME280;29470;53.550;9.926;2023-06-10T12:35:25;101427.69;;;27.99;44.55
43824;BME280;29470;53.550;9.926;2023-06-10T12:40:30;101424.50;;;27.41;44.98
43824;BME280;29470;53.550;9.926;2023-06-10T12:45:34;101420.31;;;27.62;44.76
43824;BME280;29470;53.550;9.926;2023-06-10T12:50:41;101417.91;;;27.90;44.45
43824;BME280;29470;53.550;9.926;2023-06-10T12:55:44;101406.59;;;28.14;43.95
43824;BME280;29470;53.550;9.926;2023-06-10T13:00:47;101414.56;;;28.14;43.59
43824;BME280;29470;53.550;9.926;2023-06-10T13:05:52;101402.56;;;28.89;41.54
43824;BME280;29470;53.550;9.926;2023-06-10T13:10:55;101402.25;;;28.33;42.73
43824;BME280;29470;53.550;9.926;2023-06-10T13:15:57;101395.38;;;28.73;41.79
43824;BME280;29470;53.550;9.926;2023-06-10T13:21:05;101395.94;;;28.14;42.69
43824;BME280;29470;53.550;9.926;2023-06-10T13:26:08;101394.22;;;28.19;43.55
43824;BME280;29470;53.550;9.926;2023-06-10T13:31:11;101387.28;;;28.51;41.91
43824;BME280;29470;53.550;9.926;2023-06-10T13:36:15;101365.16;;;28.57;41.93
43824;BME280;29470;53.550;9.926;2023-06-10T13:41:18;101367.97;;;28.88;41.07
43824;BME280;29470;53.550;9.926;2023-06-10T13:46:21;101360.03;;;29.03;40.88
43824;BME280;29470;53.550;9.926;2023-06-10T13:51:26;101361.72;;;28.79;42.37
43824;BME280;29470;53.550;9.926;2023-06-10T13:56:29;101356.50;;;29.10;42.58
43824;BME280;29470;53.550;9.926;2023-06-10T14:01:32;101357.38;;;29.31;43.00
43824;BME280;29470;53.550;9.926;2023-06-10T14:06:36;101352.03;;;29.25;43.68
43824;BME280;29470;53.550;9.926;2023-06-10T14:11:39;101361.78;;;29.09;43.83
43824;BME280;29470;53.550;9.926;2023-06-10T14:16:43;101352.88;;;28.94;44.29
43824;BME280;29470;53.550;9.926;2023-06-10T14:21:47;101364.19;;;28.42;46.25
43824;BME280;29470;53.550;9.926;2023-06-10T14:26:52;101379.13;;;28.17;46.25
43824;BME280;29470;53.550;9.926;2023-06-10T14:31:55;101373.69;;;28.06;46.97
43824;BME280;29470;53.550;9.926;2023-06-10T14:37:00;101372.06;;;28.19;46.40
43824;BME280;29470;53.550;9.926;2023-06-10T14:42:05;101371.34;;;28.52;46.02
43824;BME280;29470;53.550;9.926;2023-06-10T14:47:08;101366.03;;;28.60;45.22
43824;BME280;29470;53.550;9.926;2023-06-10T14:52:13;101374.84;;;28.42;45.92
43824;BME280;29470;53.550;9.926;2023-06-10T14:57:15;101374.81;;;28.41;45.85
43824;BME280;29470;53.550;9.926;2023-06-10T15:02:18;101365.75;;;28.07;46.05
43824;BME280;29470;53.550;9.926;2023-06-10T15:07:23;101381.78;;;28.14;46.22
43824;BME280;29470;53.550;9.926;2023-06-10T15:12:27;101364.31;;;28.67;45.17
43824;BME280;29470;53.550;9.926;2023-06-10T15:17:30;101365.19;;;28.66;44.56
43824;BME280;29470;53.550;9.926;2023-06-10T15:22:35;101359.88;;;28.66;45.07
43824;BME280;29470;53.550;9.926;2023-06-10T15:27:38;101366.78;;;28.27;45.45
43824;BME280;29470;53.550;9.926;2023-06-10T15:32:40;101372.56;;;27.73;46.44
43824;BME280;29470;53.550;9.926;2023-06-10T15:37:45;101368.38;;;28.03;45.61
43824;BME280;29470;53.550;9.926;2023-06-10T15:42:48;101370.81;;;27.73;46.01
43824;BME280;29470;53.550;9.926;2023-06-10T15:47:51;101373.84;;;27.21;47.10
43824;BME280;29470;53.550;9.926;2023-06-10T15:52:55;101361.56;;;27.34;47.04
43824;BME280;29470;53.550;9.926;2023-06-10T15:57:58;101362.47;;;27.36;46.75
43824;BME280;29470;53.550;9.926;2023-06-10T16:03:02;101362.75;;;27.64;46.00
43824;BME280;29470;53.550;9.926;2023-06-10T16:08:06;101354.19;;;27.03;47.76
43824;BME280;29470;53.550;9.926;2023-06-10T16:13:09;101360.47;;;27.12;46.62
43824;BME280;29470;53.550;9.926;2023-06-10T16:18:12;101355.41;;;27.38;46.06
43824;BME280;29470;53.550;9.926;2023-06-10T16:23:16;101348.72;;;26.88;46.91
43824;BME280;29470;53.550;9.926;2023-06-10T16:28:19;101343.22;;;27.57;45.78
43824;BME280;29470;53.550;9.926;2023-06-10T16:33:22;101352.22;;;27.75;45.62
43824;BME280;29470;53.550;9.926;2023-06-10T16:38:26;101366.09;;;27.44;45.78
43824;BME280;29470;53.550;9.926;2023-06-10T16:43:29;101358.88;;;27.28;46.00
43824;BME280;29470;53.550;9.926;2023-06-10T16:48:32;101349.97;;;27.23;46.29
43824;BME280;29470;53.550;9.926;2023-06-10T16:53:36;101353.81;;;27.53;45.30
43824;BME280;29470;53.550;9.926;2023-06-10T16:58:39;101349.97;;;27.21;46.03
43824;BME280;29470;53.550;9.926;2023-06-10T17:03:41;101352.56;;;27.16;46.01
43824;BME280;29470;53.550;9.926;2023-06-10T17:08:46;101361.03;;;26.84;46.85
43824;BME280;29470;53.550;9.926;2023-06-10T17:13:49;101356.28;;;26.57;47.80
43824;BME280;29470;53.550;9.926;2023-06-10T17:18:52;101372.63;;;26.23;48.54
43824;BME280;29470;53.550;9.926;2023-06-10T17:23:56;101364.72;;;26.28;49.00
43824;BME280;29470;53.550;9.926;2023-06-10T17:28:59;101357.69;;;26.28;48.88
43824;BME280;29470;53.550;9.926;2023-06-10T17:34:03;101361.03;;;26.15;49.24
43824;BME280;29470;53.550;9.926;2023-06-10T17:39:07;101356.72;;;26.25;49.11
43824;BME280;29470;53.550;9.926;2023-06-10T17:44:10;101362.41;;;26.54;48.83
43824;BME280;29470;53.550;9.926;2023-06-10T17:49:13;101379.16;;;25.90;50.28
43824;BME280;29470;53.550;9.926;2023-06-10T17:54:18;101387.16;;;25.95;50.07
43824;BME280;29470;53.550;9.926;2023-06-10T17:59:21;101380.03;;;25.91;50.38
43824;BME280;29470;53.550;9.926;2023-06-10T18:04:24;101384.50;;;25.93;49.91
43824;BME280;29470;53.550;9.926;2023-06-10T18:09:29;101394.09;;;26.42;48.83
43824;BME280;29470;53.550;9.926;2023-06-10T18:14:32;101398.41;;;25.80;50.03
43824;BME280;29470;53.550;9.926;2023-06-10T18:19:35;101401.84;;;25.74;49.99
43824;BME280;29470;53.550;9.926;2023-06-10T18:24:40;101390.91;;;25.52;50.62
43824;BME280;29470;53.550;9.926;2023-06-10T18:29:43;101397.38;;;25.22;51.29
43824;BME280;29470;53.550;9.926;2023-06-10T18:34:46;101398.31;;;25.75;50.07
43824;BME280;29470;53.550;9.926;2023-06-10T18:39:52;101400.22;;;25.33;51.15
43824;BME280;29470;53.550;9.926;2023-06-10T18:44:55;101406.06;;;25.15;51.38
43824;BME280;29470;53.550;9.926;2023-06-10T18:50:23;101416.94;;;24.86;52.26
43824;BME280;29470;53.550;9.926;2023-06-10T18:55:27;101417.28;;;25.03;51.57
43824;BME280;29470;53.550;9.926;2023-06-10T19:00:33;101430.91;;;24.80;52.23
43824;BME280;29470;53.550;9.926;2023-06-10T19:05:44;101417.38;;;25.08;51.55
43824;BME280;29470;53.550;9.926;2023-06-10T19:10:50;101438.44;;;24.62;52.55
43824;BME280;29470;53.550;9.926;2023-06-10T19:15:57;101441.94;;;24.61;52.30
43824;BME280;29470;53.550;9.926;2023-06-10T19:21:10;101451.13;;;24.77;52.32
43824;BME280;29470;53.550;9.926;2023-06-10T19:26:19;101457.03;;;24.66;52.48
43824;BME280;29470;53.550;9.926;2023-06-10T19:31:22;101472.03;;;24.27;53.14
43824;BME280;29470;53.550;9.926;2023-06-10T19:36:26;101473.59;;;24.21;53.10
43824;BME280;29470;53.550;9.926;2023-06-10T19:41:31;101490.00;;;24.07;53.54
43824;BME280;29470;53.550;9.926;2023-06-10T19:46:37;101494.50;;;23.78;54.20
43824;BME280;29470;53.550;9.926;2023-06-10T19:51:40;101503.19;;;23.74;54.87
43824;BME280;29470;53.550;9.926;2023-06-10T19:56:50;101500.28;;;23.98;53.95
43824;BME280;29470;53.550;9.926;2023-06-10T20:01:53;101506.53;;;23.66;54.20
43824;BME280;29470;53.550;9.926;2023-06-10T20:06:56;101507.88;;;23.84;53.35
43824;BME280;29470;53.550;9.926;2023-06-10T20:12:03;101527.63;;;23.34;53.83
43824;BME280;29470;53.550;9.926;2023-06-10T20:17:10;101526.59;;;23.93;51.73
43824;BME280;29470;53.550;9.926;2023-06-10T20:22:13;101542.84;;;23.14;51.88
43824;BME280;29470;53.550;9.926;2023-06-10T20:27:19;101552.13;;;23.30;50.78
43824;BME280;29470;53.550;9.926;2023-06-10T20:32:22;101559.13;;;23.59;49.50
43824;BME280;29470;53.550;9.926;2023-06-10T20:37:25;101557.22;;;23.24;49.48
43824;BME280;29470;53.550;9.926;2023-06-10T20:42:30;101561.94;;;23.34;47.80
43824;BME280;29470;53.550;9.926;2023-06-10T20:47:33;101557.75;;;23.14;47.00
43824;BME280;29470;53.550;9.926;2023-06-10T20:52:39;101556.38;;;22.96;46.88
43824;BME280;29470;53.550;9.926;2023-06-10T20:57:45;101564.34;;;22.99;46.63
43824;BME280;29470;53.550;9.926;2023-06-10T21:02:48;101565.25;;;23.00;46.04
43824;BME280;29470;53.550;9.926;2023-06-10T21:07:51;101569.41;;;22.91;45.79
43824;BME280;29470;53.550;9.926;2023-06-10T21:12:55;101564.31;;;22.98;44.91
43824;BME280;29470;53.550;9.926;2023-06-10T21:17:58;101564.19;;;22.65;45.77
43824;BME280;29470;53.550;9.926;2023-06-10T21:23:01;101560.47;;;22.59;44.85
43824;BME280;29470;53.550;9.926;2023-06-10T21:28:05;101567.03;;;22.72;44.83
43824;BME280;29470;53.550;9.926;2023-06-10T21:33:08;101572.03;;;22.38;44.62
43824;BME280;29470;53.550;9.926;2023-06-10T21:38:12;101576.78;;;22.22;44.62
43824;BME280;29470;53.550;9.926;2023-06-10T21:43:16;101567.31;;;22.28;44.62
43824;BME280;29470;53.550;9.926;2023-06-10T21:48:19;101583.66;;;22.19;44.17
43824;BME280;29470;53.550;9.926;2023-06-10T21:53:22;101586.31;;;22.19;44.11
43824;BME280;29470;53.550;9.926;2023-06-10T21:58:26;101587.59;;;22.04;43.74
43824;BME280;29470;53.550;9.926;2023-06-10T22:03:29;101588.81;;;21.66;44.08
43824;BME280;29470;53.550;9.926;2023-06-10T22:08:32;101603.25;;;21.54;44.14
43824;BME280;29470;53.550;9.926;2023-06-10T22:13:37;101592.56;;;21.49;44.24
43824;BME280;29470;53.550;9.926;2023-06-10T22:18:40;101585.56;;;21.50;44.25
43824;BME280;29470;53.550;9.926;2023-06-10T22:23:43;101601.13;;;20.98;45.17
43824;BME280;29470;53.550;9.926;2023-06-10T22:28:47;101597.94;;;20.84;45.13
43824;BME280;29470;53.550;9.926;2023-06-10T22:33:50;101600.09;;;20.95;45.09
43824;BME280;29470;53.550;9.926;2023-06-10T22:38:53;101605.34;;;20.52;44.93
43824;BME280;29470;53.550;9.926;2023-06-10T22:43:57;101607.38;;;20.38;45.86
43824;BME280;29470;53.550;9.926;2023-06-10T22:49:00;101610.72;;;20.55;45.67
43824;BME280;29470;53.550;9.926;2023-06-10T22:54:03;101620.28;;;20.74;45.05
43824;BME280;29470;53.550;9.926;2023-06-10T22:59:09;101619.13;;;20.25;45.20
43824;BME280;29470;53.550;9.926;2023-06-10T23:04:12;101615.88;;;20.11;45.21
43824;BME280;29470;53.550;9.926;2023-06-10T23:09:14;101607.97;;;20.31;44.73
43824;BME280;29470;53.550;9.926;2023-06-10T23:14:19;101605.88;;;20.02;44.53
43824;BME280;29470;53.550;9.926;2023-06-10T23:19:21;101616.06;;;19.77;44.94
43824;BME280;29470;53.550;9.926;2023-06-10T23:24:25;101618.97;;;19.45;45.53
43824;BME280;29470;53.550;9.926;2023-06-10T23:29:32;101613.56;;;19.60;45.47
43824;BME280;29470;53.550;9.926;2023-06-10T23:34:42;101605.00;;;19.26;45.93
43824;BME280;29470;53.550;9.926;2023-06-10T23:39:45;101613.19;;;19.52;45.66
43824;BME280;29470;53.550;9.926;2023-06-10T23:44:51;101623.28;;;19.25;46.07
43824;BME280;29470;53.550;9.926;2023-06-10T23:49:54;101621.13;;;19.16;46.16
43824;BME280;29470;53.550;9.926;2023-06-10T23:54:57;101629.41;;;18.89;46.80
